KMCN/MCN METAR and TAF weather

Enter ICAO airport designator
Station Type Date Time Source
KMCN METAR 2020/11/28 19:53 UTC NOAA

KMCN 281953Z 00000KT 10SM BKN016 17/12 A3005 RMK AO2 SLP173 T01720122


Station Type Date Time Source
KMCN Decoded METAR 2020/11/28 19:53 UTC NOAA

MIDDLE GEORGIA REGIONAL AIRPORT , GA, United States (KMCN) 32-41N 83-39W 109M
Nov 28, 2020 - 02:53 PM EST / 2020.11.28 1953 UTC
Wind: Calm:0
Visibility: 10 mile(s):0
Sky conditions: mostly cloudy
Temperature: 63.0 F (17.2 C)
Dew Point: 54.0 F (12.2 C)
Relative Humidity: 72%
Pressure (altimeter): 30.05 in. Hg (1017 hPa)
ob: KMCN 281953Z 00000KT 10SM BKN016 17/12 A3005 RMK AO2 SLP173 T01720122
cycle: 20

Station Type Date Time Source
KMCN TAF 2020/11/28 18:42 UTC NOAA

TAF KMCN 281741Z 2818/2918 03005KT P6SM SCT010 BKN250
TEMPO 2818/2820 BKN008 BKN250
FM282000 09004KT P6SM BKN250
FM290900 08004KT P6SM BKN015
TEMPO 2916/2918 6SM -RA BR BKN008

Example: see airport list